createdAt,value
2018-07-09T00:00:53.750Z,0.00
2018-07-09T00:01:53.764Z,0.00
2018-07-09T00:02:53.586Z,0.00
2018-07-09T00:03:53.579Z,0.00
2018-07-09T00:04:53.452Z,0.00
2018-07-09T00:05:53.385Z,0.00
2018-07-09T00:06:53.286Z,0.00
2018-07-09T00:07:53.295Z,0.00
2018-07-09T00:08:53.119Z,0.00
2018-07-09T00:09:53.146Z,0.00
2018-07-09T00:10:52.962Z,0.00
2018-07-09T00:11:52.914Z,0.00
2018-07-09T00:12:52.810Z,0.00
2018-07-09T00:13:52.825Z,0.00
2018-07-09T00:14:52.678Z,0.00
2018-07-09T00:15:52.630Z,0.00
2018-07-09T00:16:52.500Z,0.00
2018-07-09T00:17:52.440Z,0.00
2018-07-09T00:18:52.342Z,0.00
2018-07-09T00:19:52.398Z,0.00
2018-07-09T00:20:52.195Z,0.00
2018-07-09T00:21:52.159Z,0.00
2018-07-09T00:22:52.036Z,0.00
2018-07-09T00:23:51.972Z,0.00
2018-07-09T00:24:51.885Z,0.00
2018-07-09T00:25:52.122Z,0.00
2018-07-09T00:26:51.702Z,0.00
2018-07-09T00:27:51.690Z,0.00
2018-07-09T00:28:51.549Z,0.00
2018-07-09T00:29:51.595Z,0.00
2018-07-09T00:30:51.413Z,0.00
2018-07-09T00:31:51.408Z,0.00
2018-07-09T00:32:51.246Z,0.00
2018-07-09T00:33:51.218Z,0.00
2018-07-09T00:34:51.081Z,0.00
2018-07-09T00:35:51.058Z,0.00
2018-07-09T00:36:50.927Z,0.00
2018-07-09T00:37:50.940Z,0.00
2018-07-09T00:38:50.762Z,0.00
2018-07-09T00:39:50.747Z,0.00
2018-07-09T00:40:50.626Z,0.00
2018-07-09T00:41:50.659Z,0.00
2018-07-09T00:42:50.453Z,0.00
2018-07-09T00:43:50.467Z,0.00
2018-07-09T00:44:50.290Z,0.00
2018-07-09T00:45:50.316Z,0.00
2018-07-09T00:46:50.138Z,0.00
2018-07-09T00:47:50.195Z,0.00
2018-07-09T00:48:49.998Z,0.00
2018-07-09T00:51:32.094Z,0.00
2018-07-09T00:52:32.101Z,0.00
2018-07-09T00:53:31.916Z,0.00
2018-07-09T00:54:31.905Z,0.00
2018-07-09T00:55:31.753Z,0.00
2018-07-09T00:56:31.747Z,0.00
2018-07-09T00:57:31.606Z,0.00
2018-07-09T00:58:31.627Z,0.00
2018-07-09T00:59:31.447Z,0.00
2018-07-09T01:00:31.442Z,0.00
2018-07-09T01:01:31.309Z,0.00
2018-07-09T01:02:31.236Z,0.00
2018-07-09T01:03:31.131Z,0.00
2018-07-09T01:04:31.151Z,0.00
2018-07-09T01:05:30.970Z,0.00
2018-07-09T01:06:30.991Z,0.00
2018-07-09T01:07:30.828Z,0.00
2018-07-09T01:08:30.774Z,0.00
2018-07-09T01:09:30.663Z,0.00
2018-07-09T01:10:30.673Z,0.00
2018-07-09T01:11:30.588Z,0.00
2018-07-09T01:12:30.491Z,0.00
2018-07-09T01:13:30.351Z,0.00
2018-07-09T01:14:30.398Z,0.00
2018-07-09T01:15:30.181Z,0.00
2018-07-09T01:16:31.156Z,0.00
2018-07-09T01:17:30.026Z,0.00
2018-07-09T01:18:30.013Z,0.00
2018-07-09T01:19:29.869Z,0.00
2018-07-09T01:20:29.854Z,0.00
2018-07-09T01:21:29.753Z,0.00
2018-07-09T01:22:29.730Z,0.00
2018-07-09T01:23:29.553Z,0.00
2018-07-09T01:26:11.590Z,0.00
2018-07-09T01:27:11.566Z,0.00
2018-07-09T01:28:11.428Z,0.00
2018-07-09T01:29:11.443Z,0.00
2018-07-09T01:30:11.287Z,0.00
2018-07-09T01:31:11.251Z,0.00
2018-07-09T01:32:11.132Z,0.00
2018-07-09T01:33:11.068Z,0.00
2018-07-09T01:34:10.950Z,0.00
2018-07-09T01:35:10.976Z,0.00
2018-07-09T01:36:10.804Z,0.00
2018-07-09T01:37:10.820Z,0.00
2018-07-09T01:38:10.640Z,0.00
2018-07-09T01:39:10.586Z,0.00
2018-07-09T01:40:10.475Z,0.00
2018-07-09T01:41:10.540Z,0.00
2018-07-09T01:42:10.327Z,0.00
2018-07-09T01:43:10.346Z,0.00
2018-07-09T01:44:10.183Z,0.00
2018-07-09T01:45:10.119Z,0.00
2018-07-09T01:46:10.017Z,0.00
2018-07-09T01:48:52.132Z,0.00
2018-07-09T01:49:52.140Z,0.00
2018-07-09T01:50:51.944Z,0.00
2018-07-09T01:51:51.947Z,0.00
2018-07-09T01:52:51.808Z,0.00
2018-07-09T01:53:51.790Z,0.00
2018-07-09T01:54:51.622Z,0.00
2018-07-09T01:55:51.666Z,0.00
2018-07-09T01:56:51.459Z,0.00
2018-07-09T01:57:51.511Z,0.00
2018-07-09T01:58:51.325Z,0.00
2018-07-09T02:01:33.594Z,0.00
2018-07-09T02:04:15.633Z,0.00
2018-07-09T02:05:15.578Z,0.00
2018-07-09T02:06:15.441Z,0.00
2018-07-09T02:07:15.486Z,0.00
2018-07-09T02:08:15.297Z,0.00
2018-07-09T02:09:15.332Z,0.00
2018-07-09T02:10:15.125Z,0.00
2018-07-09T02:11:15.096Z,0.00
2018-07-09T02:12:14.966Z,0.00
2018-07-09T02:13:15.965Z,0.00
2018-07-09T02:14:14.802Z,0.00
2018-07-09T02:15:14.851Z,0.00
2018-07-09T02:16:14.650Z,0.00
2018-07-09T02:17:14.640Z,0.00
2018-07-09T02:18:14.497Z,0.00
2018-07-09T02:19:14.485Z,0.00
2018-07-09T02:20:14.329Z,0.00
2018-07-09T02:21:14.351Z,0.00
2018-07-09T02:22:14.168Z,0.00
2018-07-09T02:23:14.166Z,0.00
2018-07-09T02:24:14.041Z,0.00
2018-07-09T02:25:13.969Z,0.00
2018-07-09T02:26:13.864Z,0.00
2018-07-09T02:27:13.884Z,0.00
2018-07-09T02:28:13.710Z,0.00
2018-07-09T02:29:13.723Z,0.00
2018-07-09T02:30:13.581Z,0.00
2018-07-09T02:31:13.498Z,0.00
2018-07-09T02:32:13.387Z,0.00
2018-07-09T02:33:13.403Z,0.00
2018-07-09T02:34:13.240Z,0.00
2018-07-09T02:35:13.214Z,0.00
2018-07-09T02:36:13.080Z,0.00
2018-07-09T02:37:13.033Z,0.00
2018-07-09T02:38:12.918Z,0.00
2018-07-09T02:39:12.933Z,0.00
2018-07-09T02:40:12.773Z,0.00
2018-07-09T02:41:12.753Z,0.00
2018-07-09T02:42:12.606Z,0.00
2018-07-09T02:43:12.549Z,0.00
2018-07-09T02:44:12.442Z,0.00
2018-07-09T02:45:12.503Z,0.00
2018-07-09T02:46:12.288Z,0.00
2018-07-09T02:47:12.266Z,0.00
2018-07-09T02:48:12.126Z,0.00
2018-07-09T02:49:12.091Z,0.00
2018-07-09T02:50:12.001Z,0.00
2018-07-09T02:51:11.996Z,0.00
2018-07-09T02:52:11.805Z,0.00
2018-07-09T02:53:11.809Z,0.00
2018-07-09T02:54:11.659Z,0.00
2018-07-09T02:55:11.643Z,0.00
2018-07-09T02:56:11.516Z,0.00
2018-07-09T02:57:11.526Z,0.00
2018-07-09T02:58:11.331Z,0.00
2018-07-09T02:59:11.328Z,0.00
2018-07-09T03:00:11.190Z,0.00
2018-07-09T03:01:11.309Z,0.00
2018-07-09T03:02:11.012Z,0.00
2018-07-09T03:03:11.049Z,0.00
2018-07-09T03:04:10.853Z,0.00
2018-07-09T03:05:10.854Z,0.00
2018-07-09T03:06:10.745Z,0.00
2018-07-09T03:07:10.663Z,0.00
2018-07-09T03:08:10.557Z,0.00
2018-07-09T03:09:10.579Z,0.00
2018-07-09T03:10:10.388Z,0.00
2018-07-09T03:11:10.419Z,0.00
2018-07-09T03:12:10.228Z,0.00
2018-07-09T03:14:52.120Z,0.00
2018-07-09T03:15:52.120Z,0.00
2018-07-09T03:16:52.014Z,0.00
2018-07-09T03:19:34.113Z,5.63
2018-07-09T03:20:34.121Z,5.63
2018-07-09T03:21:34.006Z,5.63
2018-07-09T03:22:33.905Z,5.63
2018-07-09T03:23:33.800Z,5.63
2018-07-09T03:24:33.820Z,5.63
2018-07-09T03:25:33.663Z,5.63
2018-07-09T03:26:33.668Z,5.63
2018-07-09T03:27:33.478Z,5.63
2018-07-09T03:28:33.457Z,11.25
2018-07-09T03:29:33.348Z,11.25
2018-07-09T03:30:33.347Z,11.25
2018-07-09T03:31:33.263Z,11.25
2018-07-09T03:32:33.162Z,11.25
2018-07-09T03:33:33.009Z,11.25
2018-07-09T03:34:32.978Z,11.25
2018-07-09T03:35:32.848Z,16.88
2018-07-09T03:36:32.914Z,16.88
2018-07-09T03:37:32.684Z,16.88
2018-07-09T03:38:32.686Z,16.88
2018-07-09T03:39:32.534Z,16.88
2018-07-09T03:40:32.497Z,16.88
2018-07-09T03:41:32.397Z,22.50
2018-07-09T03:42:32.401Z,22.50
2018-07-09T03:43:32.215Z,22.50
2018-07-09T03:44:32.210Z,22.50
2018-07-09T03:45:32.063Z,22.50
2018-07-09T03:46:32.054Z,28.13
2018-07-09T03:47:31.916Z,28.13
2018-07-09T03:48:32.977Z,28.13
2018-07-09T03:49:31.739Z,28.13
2018-07-09T03:50:31.740Z,33.75
2018-07-09T03:51:31.583Z,33.75
2018-07-09T03:52:31.582Z,33.75
2018-07-09T03:53:31.431Z,33.75
2018-07-09T03:54:31.453Z,39.38
2018-07-09T03:55:31.271Z,39.38
2018-07-09T03:56:31.274Z,39.38
2018-07-09T03:57:31.115Z,39.38
2018-07-09T03:58:31.106Z,45.00
2018-07-09T03:59:30.957Z,45.00
2018-07-09T04:00:31.193Z,50.63
2018-07-09T04:01:30.792Z,50.63
2018-07-09T04:02:30.710Z,56.25
2018-07-09T04:03:30.673Z,56.25
2018-07-09T04:06:12.635Z,61.88
2018-07-09T04:07:12.596Z,61.88
2018-07-09T04:08:12.464Z,61.88
2018-07-09T04:09:12.551Z,67.50
2018-07-09T04:10:12.325Z,67.50
2018-07-09T04:11:12.340Z,67.50
2018-07-09T04:12:12.183Z,73.13
2018-07-09T04:13:12.123Z,73.13
2018-07-09T04:14:12.014Z,73.13
2018-07-09T04:15:12.050Z,73.13
2018-07-09T04:16:11.838Z,78.75
2018-07-09T04:17:11.836Z,78.75
2018-07-09T04:18:11.670Z,78.75
2018-07-09T04:19:11.679Z,84.38
2018-07-09T04:20:11.536Z,84.38
2018-07-09T04:21:11.566Z,84.38
2018-07-09T04:22:11.360Z,84.38
2018-07-09T04:23:11.368Z,90.00
2018-07-09T04:24:11.218Z,90.00
2018-07-09T04:25:11.178Z,90.00
2018-07-09T04:26:11.061Z,95.63
2018-07-09T04:27:10.992Z,95.63
2018-07-09T04:28:10.894Z,95.63
2018-07-09T04:29:10.928Z,101.25
2018-07-09T04:30:10.730Z,101.25
2018-07-09T04:31:10.750Z,101.25
2018-07-09T04:33:35.144Z,106.88
2018-07-09T04:36:17.165Z,112.50
2018-07-09T04:37:17.060Z,112.50
2018-07-09T04:38:16.973Z,112.50
2018-07-09T04:39:16.923Z,112.50
2018-07-09T04:40:16.815Z,118.13
2018-07-09T05:04:38.745Z,168.75
2018-07-09T05:05:38.646Z,168.75
2018-07-09T05:06:38.554Z,168.75
2018-07-09T05:07:39.494Z,163.13
2018-07-09T05:08:38.393Z,163.13
2018-07-09T05:09:38.342Z,163.13
2018-07-09T05:10:38.247Z,157.50
2018-07-09T05:11:38.158Z,157.50
2018-07-09T05:12:38.104Z,157.50
2018-07-09T05:15:20.157Z,157.50
2018-07-09T05:16:20.074Z,163.13
2018-07-09T05:17:20.018Z,163.13
2018-07-09T05:18:19.930Z,163.13
2018-07-09T05:19:19.832Z,168.75
2018-07-09T05:22:01.649Z,168.75
2018-07-09T05:23:01.593Z,168.75
2018-07-09T05:24:01.505Z,174.38
2018-07-09T05:25:01.461Z,174.38
2018-07-09T05:26:01.340Z,174.38
2018-07-09T05:27:01.271Z,174.38
2018-07-09T05:28:01.207Z,174.38
2018-07-09T05:29:01.132Z,174.38
2018-07-09T05:31:25.647Z,180.00
2018-07-09T05:32:25.576Z,180.00
2018-07-09T05:33:25.525Z,180.00
2018-07-09T05:34:25.431Z,185.63
2018-07-09T05:35:25.339Z,185.63
2018-07-09T05:50:23.564Z,202.50
2018-07-09T05:51:23.462Z,202.50
2018-07-09T05:52:23.371Z,202.50
2018-07-09T05:53:23.310Z,202.50
2018-07-09T05:54:23.221Z,202.50
2018-07-09T05:55:23.157Z,208.13
2018-07-09T05:56:23.080Z,208.13
2018-07-09T05:57:22.995Z,208.13
2018-07-09T05:58:22.909Z,208.13
2018-07-09T05:59:22.850Z,208.13
2018-07-09T06:00:22.750Z,208.13
2018-07-09T06:01:22.679Z,208.13
2018-07-09T06:02:22.590Z,213.75
2018-07-09T06:03:22.523Z,213.75
2018-07-09T06:04:22.456Z,213.75
2018-07-09T06:05:22.358Z,213.75
2018-07-09T06:06:22.272Z,213.75
2018-07-09T06:07:22.198Z,213.75
2018-07-09T06:08:22.121Z,213.75
2018-07-09T06:09:22.058Z,213.75
2018-07-09T06:10:21.968Z,213.75
2018-07-09T06:11:21.920Z,213.75
2018-07-09T06:12:21.811Z,213.75
2018-07-09T06:15:03.669Z,213.75
2018-07-09T06:16:03.649Z,219.38
2018-07-09T06:17:03.513Z,213.75
2018-07-09T06:19:45.694Z,219.38
2018-07-09T06:20:46.702Z,219.38
2018-07-09T06:21:45.502Z,225.00
2018-07-09T06:22:45.545Z,225.00
2018-07-09T06:23:45.357Z,230.63
2018-07-09T06:26:50.552Z,241.88
2018-07-09T06:27:50.507Z,247.50
2018-07-09T06:28:50.363Z,247.50
2018-07-09T06:31:32.601Z,360.00
2018-07-09T06:32:32.502Z,742.50
2018-07-09T06:33:32.392Z,1102.50
2018-07-09T06:34:32.438Z,1237.50
2018-07-09T06:37:26.083Z,1321.88
2018-07-09T06:38:25.998Z,1344.38
2018-07-09T06:39:25.911Z,1372.50
2018-07-09T06:40:25.825Z,1372.50
2018-07-09T06:41:25.750Z,1428.75
2018-07-09T06:42:25.673Z,1434.38
2018-07-09T06:43:25.620Z,1485.00
2018-07-09T06:44:25.510Z,1501.88
2018-07-09T06:45:25.447Z,1535.63
2018-07-09T06:46:25.367Z,1496.25
2018-07-09T06:47:25.286Z,1552.50
2018-07-09T06:48:25.231Z,1687.50
2018-07-09T06:49:25.132Z,1653.75
2018-07-09T06:50:25.061Z,1558.13
2018-07-09T06:51:24.973Z,1552.50
2018-07-09T06:52:24.900Z,1586.25
2018-07-09T06:53:24.854Z,1636.88
2018-07-09T06:54:24.745Z,1670.63
2018-07-09T06:55:24.722Z,1687.50
2018-07-09T06:56:24.601Z,1636.88
2018-07-09T06:57:24.546Z,1620.00
2018-07-09T06:59:54.291Z,1895.63
2018-07-09T07:00:54.367Z,1704.38
2018-07-09T07:01:54.145Z,1822.50
2018-07-09T07:02:54.072Z,1996.88
2018-07-09T07:03:55.017Z,1951.88
2018-07-09T07:04:53.926Z,1985.63
2018-07-09T07:07:36.060Z,1839.38
2018-07-09T07:08:36.055Z,1884.38
2018-07-09T07:09:35.943Z,1580.63
2018-07-09T07:10:35.847Z,1586.25
2018-07-09T07:11:35.780Z,1715.63
2018-07-09T07:12:35.703Z,1704.38
2018-07-09T07:13:35.632Z,1749.38
2018-07-09T07:14:35.619Z,1749.38
2018-07-09T07:15:35.496Z,1563.75
2018-07-09T07:18:17.597Z,1231.88
2018-07-09T07:35:57.522Z,1203.75
2018-07-09T07:38:39.582Z,1276.88
2018-07-09T07:39:39.537Z,1260.00
2018-07-09T07:40:39.432Z,1153.13
2018-07-09T07:41:39.398Z,1186.88
2018-07-09T07:42:39.286Z,1215.00
2018-07-09T07:43:39.242Z,1141.88
2018-07-09T07:44:39.150Z,1136.25
2018-07-09T07:45:39.120Z,1226.25
2018-07-09T07:46:39.037Z,1254.38
2018-07-09T07:47:38.943Z,1248.75
2018-07-09T07:48:38.893Z,1276.88
2018-07-09T07:49:38.823Z,1299.38
2018-07-09T07:50:38.918Z,1305.00
2018-07-09T07:53:20.601Z,1479.38
2018-07-09T07:54:20.534Z,1383.75
2018-07-09T07:55:20.463Z,1963.13
2018-07-09T07:56:20.405Z,2491.88
2018-07-09T08:07:01.230Z,3352.50
2018-07-09T08:08:01.118Z,3183.75
2018-07-09T08:09:01.041Z,3076.88
2018-07-09T08:11:48.555Z,3217.50
2018-07-09T08:13:26.866Z,3290.63
2018-07-09T08:13:43.007Z,3481.88
2018-07-09T08:14:42.896Z,3774.38
2018-07-09T08:15:42.817Z,3031.88
2018-07-09T08:16:42.772Z,3217.50
2018-07-09T08:17:42.682Z,2913.75
2018-07-09T08:18:42.608Z,2610.00
2018-07-09T08:19:42.520Z,2908.13
2018-07-09T08:20:42.470Z,3330.00
2018-07-09T08:21:42.416Z,3183.75
2018-07-09T08:22:42.321Z,2986.88
2018-07-09T08:23:42.260Z,3442.50
2018-07-09T08:24:42.266Z,3307.50
2018-07-09T08:25:42.307Z,2745.00
2018-07-09T08:26:42.079Z,3155.63
2018-07-09T08:27:41.976Z,2188.13
2018-07-09T08:28:41.930Z,2671.88
2018-07-09T08:29:41.849Z,2362.50
2018-07-09T08:30:41.777Z,2317.50
2018-07-09T08:31:41.705Z,1929.38
2018-07-09T08:32:41.639Z,2705.63
2018-07-09T08:33:41.541Z,2728.13
2018-07-09T08:34:41.489Z,3678.75
2018-07-09T08:35:41.449Z,3825.00
2018-07-09T08:36:41.362Z,3825.00
2018-07-09T08:37:41.259Z,4179.38
2018-07-09T08:38:41.192Z,3448.13
2018-07-09T08:39:41.113Z,4111.88
2018-07-09T08:42:23.120Z,3898.13
2018-07-09T08:45:05.103Z,4134.38
2018-07-09T08:47:47.134Z,4410.00
2018-07-09T08:48:47.070Z,4100.63
2018-07-09T08:49:46.967Z,3808.13
2018-07-09T08:52:29.143Z,4196.25
2018-07-09T08:53:29.109Z,4258.13
2018-07-09T08:54:28.978Z,4505.63
2018-07-09T08:55:28.901Z,4038.75
2018-07-09T08:56:28.890Z,3639.38
2018-07-09T08:57:28.812Z,3796.88
2018-07-09T08:58:28.746Z,4539.38
2018-07-09T09:01:10.627Z,4533.75
2018-07-09T09:02:10.546Z,1366.88
2018-07-09T09:03:10.500Z,4691.25
2018-07-09T09:04:10.431Z,4280.63
2018-07-09T09:05:10.492Z,3796.88
2018-07-09T09:07:52.640Z,3836.25
2018-07-09T09:08:52.676Z,3656.25
2018-07-09T09:09:52.748Z,3870.00
2018-07-09T09:10:52.488Z,2930.63
2018-07-09T09:11:52.598Z,3228.75
2018-07-09T09:12:52.299Z,3521.25
2018-07-09T09:13:52.250Z,2986.88
2018-07-09T09:14:52.146Z,3065.63
2018-07-09T09:15:52.076Z,2829.38
2018-07-09T09:16:52.021Z,3015.00
2018-07-09T09:17:51.949Z,2576.25
2018-07-09T09:18:51.975Z,2700.00
2018-07-09T09:19:51.827Z,2818.13
2018-07-09T09:20:51.743Z,2238.75
2018-07-09T09:21:51.684Z,2193.75
2018-07-09T09:22:51.618Z,2345.63
2018-07-09T09:23:51.554Z,2098.13
2018-07-09T09:24:51.503Z,2025.00
2018-07-09T09:25:51.404Z,2081.25
2018-07-09T09:26:51.368Z,2002.50
2018-07-09T09:27:51.282Z,2030.63
2018-07-09T09:28:52.241Z,2030.63
2018-07-09T09:29:51.157Z,1833.75
2018-07-09T09:30:51.143Z,1822.50
2018-07-09T09:31:51.025Z,1890.00
2018-07-09T09:32:50.940Z,2041.88
2018-07-09T09:33:50.878Z,1906.88
2018-07-09T09:34:50.809Z,2081.25
2018-07-09T09:35:50.714Z,1738.13
2018-07-09T09:36:50.681Z,1670.63
2018-07-09T09:37:50.600Z,1951.88
2018-07-09T09:38:50.544Z,3093.75
2018-07-09T09:39:50.513Z,4370.63
2018-07-09T09:40:50.412Z,3330.00
2018-07-09T09:41:50.348Z,3065.63
2018-07-09T09:44:32.676Z,3048.75
2018-07-09T09:45:32.595Z,3324.38
2018-07-09T09:46:32.632Z,3234.38
2018-07-09T09:47:32.440Z,4072.50
2018-07-09T09:48:32.359Z,3566.25
2018-07-09T09:49:32.303Z,3836.25
2018-07-09T09:50:32.251Z,3650.63
2018-07-09T09:51:32.199Z,4708.13
2018-07-09T09:52:32.078Z,4646.25
2018-07-09T09:53:32.036Z,4573.13
2018-07-09T09:54:31.941Z,4359.38
2018-07-09T09:57:14.150Z,4921.88
2018-07-09T09:58:14.077Z,3791.25
2018-07-09T09:59:14.003Z,4798.13
2018-07-09T10:00:13.941Z,4747.50
2018-07-09T10:01:13.886Z,4578.75
2018-07-09T10:02:14.837Z,4685.63
2018-07-09T10:03:13.734Z,2334.38
2018-07-09T10:05:55.647Z,4702.50
2018-07-09T10:06:55.596Z,2565.00
2018-07-09T10:07:55.498Z,2745.00
2018-07-09T10:10:37.653Z,4831.88
2018-07-09T10:13:19.668Z,4983.75
2018-07-09T10:14:20.607Z,5135.63
2018-07-09T10:15:19.505Z,3791.25
2018-07-09T10:16:19.458Z,3667.50
2018-07-09T10:17:19.368Z,1321.88
2018-07-09T10:18:19.321Z,4696.88
2018-07-09T10:19:19.272Z,2480.63
2018-07-09T10:20:19.187Z,4747.50
2018-07-09T10:21:19.116Z,4775.63
2018-07-09T10:24:01.185Z,4725.00
2018-07-09T10:25:02.112Z,4590.00
2018-07-09T10:26:01.018Z,4432.50
2018-07-09T10:28:43.182Z,3498.75
2018-07-09T10:31:25.177Z,4972.50
2018-07-09T10:32:25.111Z,4646.25
2018-07-09T10:33:25.013Z,4820.63
2018-07-09T10:34:24.983Z,4876.88
2018-07-09T10:35:24.925Z,4815.00
2018-07-09T10:38:07.167Z,2868.75
2018-07-09T10:39:07.110Z,4623.75
2018-07-09T10:40:07.075Z,4730.63
2018-07-09T10:41:07.011Z,4567.50
2018-07-09T10:42:06.910Z,4483.13
2018-07-09T10:43:06.843Z,4320.00
2018-07-09T10:44:06.758Z,4308.75
2018-07-09T10:45:06.743Z,4314.38
2018-07-09T10:46:06.641Z,4263.75
2018-07-09T10:47:06.643Z,4303.13
2018-07-09T10:48:06.512Z,4320.00
2018-07-09T10:50:48.662Z,3330.00
2018-07-09T10:51:48.639Z,3161.25
2018-07-09T10:52:48.522Z,2947.50
2018-07-09T10:53:48.466Z,3240.00
2018-07-09T10:54:48.388Z,3211.88
2018-07-09T10:55:48.362Z,2666.25
2018-07-09T10:56:48.280Z,2559.38
2018-07-09T10:57:48.219Z,2711.25
2018-07-09T10:58:48.146Z,2503.13
2018-07-09T11:01:30.175Z,2261.25
2018-07-09T11:02:30.108Z,1625.63
2018-07-09T11:03:30.026Z,1456.88
2018-07-09T11:04:29.976Z,1552.50
2018-07-09T11:05:29.887Z,1631.25
2018-07-09T11:06:30.857Z,1316.25
2018-07-09T11:07:29.777Z,1226.25
2018-07-09T11:08:29.709Z,1147.50
2018-07-09T11:09:29.632Z,1125.00
2018-07-09T11:10:29.565Z,1192.50
2018-07-09T11:11:29.522Z,1276.88
2018-07-09T11:12:29.433Z,1237.50
2018-07-09T11:13:29.349Z,1085.63
2018-07-09T11:14:30.342Z,855.00
2018-07-09T11:15:29.241Z,686.25
2018-07-09T11:16:30.166Z,641.25
2018-07-09T11:17:29.078Z,590.63
2018-07-09T11:18:29.026Z,556.88
2018-07-09T11:19:28.945Z,528.75
2018-07-09T11:22:11.224Z,517.50
2018-07-09T11:23:11.098Z,511.88
2018-07-09T11:24:11.017Z,495.00
2018-07-09T11:25:10.963Z,517.50
2018-07-09T11:26:10.889Z,618.75
2018-07-09T11:27:10.868Z,787.50
2018-07-09T11:28:11.137Z,911.25
2018-07-09T11:29:10.689Z,1327.50
2018-07-09T11:30:10.601Z,1378.13
2018-07-09T11:31:10.588Z,1378.13
2018-07-09T11:32:10.501Z,1614.38
2018-07-09T11:33:10.449Z,1839.38
2018-07-09T11:34:10.327Z,1445.63
2018-07-09T11:35:10.252Z,1310.63
2018-07-09T11:36:10.205Z,1327.50
2018-07-09T11:37:10.169Z,1260.00
2018-07-09T11:38:10.062Z,1119.38
2018-07-09T11:39:09.974Z,1136.25
2018-07-09T11:40:09.875Z,1085.63
2018-07-09T11:41:09.816Z,3571.88
2018-07-09T11:42:09.814Z,2992.50
2018-07-09T11:43:09.681Z,4162.50
2018-07-09T11:44:09.603Z,4201.88
2018-07-09T11:45:09.528Z,4246.88
2018-07-09T11:46:09.464Z,3780.00
2018-07-09T11:47:10.418Z,4005.00
2018-07-09T11:48:09.319Z,4185.00
2018-07-09T11:50:51.179Z,4331.25
2018-07-09T11:51:51.142Z,2323.13
2018-07-09T11:52:51.044Z,1288.13
2018-07-09T11:53:51.024Z,3386.25
2018-07-09T11:54:50.924Z,2002.50
2018-07-09T11:55:50.850Z,894.38
2018-07-09T11:56:50.788Z,731.25
2018-07-09T11:57:50.749Z,714.38
2018-07-09T11:58:50.667Z,765.00
2018-07-09T11:59:50.570Z,776.25
2018-07-09T12:00:50.568Z,883.13
2018-07-09T12:01:50.473Z,1035.00
2018-07-09T12:02:50.378Z,1271.25
2018-07-09T12:03:50.307Z,1350.00
2018-07-09T12:04:50.295Z,1192.50
2018-07-09T12:07:32.368Z,736.88
2018-07-09T12:10:14.257Z,900.00
2018-07-09T12:12:56.206Z,1051.88
2018-07-09T12:13:56.228Z,995.63
2018-07-09T12:14:56.047Z,1006.88
2018-07-09T12:15:55.986Z,1175.63
2018-07-09T12:16:55.925Z,1209.38
2018-07-09T12:17:55.850Z,1158.75
2018-07-09T12:18:55.775Z,1147.50
2018-07-09T12:19:55.721Z,1164.38
2018-07-09T12:20:55.636Z,1215.00
2018-07-09T12:21:55.617Z,1175.63
2018-07-09T12:22:55.478Z,1158.75
2018-07-09T12:23:55.434Z,1096.88
2018-07-09T12:24:55.362Z,967.50
2018-07-09T12:27:37.203Z,961.88
2018-07-09T12:28:37.149Z,855.00
2018-07-09T12:29:37.059Z,815.63
2018-07-09T12:30:37.008Z,787.50
2018-07-09T12:31:36.896Z,725.63
2018-07-09T12:32:36.881Z,691.88
2018-07-09T12:33:36.794Z,765.00
2018-07-09T12:34:36.747Z,776.25
2018-07-09T12:35:36.616Z,765.00
2018-07-09T12:36:36.560Z,855.00
2018-07-09T12:37:36.499Z,1006.88
2018-07-09T12:40:18.721Z,798.75
2018-07-09T12:43:00.694Z,680.63
2018-07-09T12:45:42.731Z,540.00
2018-07-09T12:46:42.654Z,506.25
2018-07-09T12:47:42.548Z,495.00
2018-07-09T12:48:42.481Z,500.63
2018-07-09T12:49:42.433Z,506.25
2018-07-09T12:50:42.339Z,511.88
2018-07-09T12:51:42.280Z,517.50
2018-07-09T12:52:42.193Z,500.63
2018-07-09T12:53:42.144Z,472.50
2018-07-09T12:54:42.057Z,450.00
2018-07-09T12:55:42.007Z,427.50
2018-07-09T12:56:41.908Z,393.75
2018-07-09T12:57:41.824Z,365.63
2018-07-09T12:58:41.761Z,337.50
2018-07-09T12:59:41.730Z,326.25
2018-07-09T13:02:23.722Z,253.13
2018-07-09T13:03:23.642Z,230.63
2018-07-09T13:04:23.569Z,225.00
2018-07-09T13:07:05.796Z,225.00
2018-07-09T13:08:05.665Z,236.25
2018-07-09T13:09:05.564Z,247.50
2018-07-09T13:10:05.506Z,270.00
2018-07-09T13:11:05.407Z,303.75
2018-07-09T13:12:05.377Z,331.88
2018-07-09T13:13:05.265Z,365.63
2018-07-09T13:14:05.191Z,410.63
2018-07-09T13:15:05.141Z,438.75
2018-07-09T13:16:05.086Z,466.88
2018-07-09T13:17:04.980Z,506.25
2018-07-09T13:18:04.922Z,540.00
2018-07-09T13:19:04.830Z,618.75
2018-07-09T13:20:04.759Z,725.63
2018-07-09T13:21:04.660Z,821.25
2018-07-09T13:22:05.712Z,843.75
2018-07-09T13:23:04.521Z,832.50
2018-07-09T13:24:04.482Z,815.63
2018-07-09T13:25:04.385Z,804.38
2018-07-09T13:26:04.322Z,798.75
2018-07-09T13:27:04.242Z,793.13
2018-07-09T13:28:04.186Z,793.13
2018-07-09T13:29:04.079Z,804.38
2018-07-09T13:30:04.002Z,798.75
2018-07-09T13:31:03.974Z,826.88
2018-07-09T13:32:03.887Z,798.75
2018-07-09T13:33:03.792Z,815.63
2018-07-09T13:34:03.719Z,821.25
2018-07-09T13:35:03.629Z,821.25
2018-07-09T13:37:45.746Z,776.25
2018-07-09T13:38:45.659Z,753.75
2018-07-09T13:39:45.574Z,759.38
2018-07-09T13:42:27.847Z,804.38
2018-07-09T13:43:27.798Z,815.63
2018-07-09T13:44:27.573Z,821.25
2018-07-09T13:45:27.508Z,826.88
2018-07-09T13:46:27.423Z,815.63
2018-07-09T13:47:27.361Z,832.50
2018-07-09T13:48:27.323Z,810.00
2018-07-09T13:51:09.247Z,720.00
2018-07-09T13:52:09.158Z,686.25
2018-07-09T13:53:09.192Z,675.00
2018-07-09T13:54:09.039Z,680.63
2018-07-09T13:55:08.929Z,675.00
2018-07-09T13:57:51.228Z,635.63
2018-07-09T13:58:52.177Z,613.13
2018-07-09T13:59:51.073Z,630.00
2018-07-09T14:00:51.033Z,691.88
2018-07-09T14:01:50.938Z,714.38
2018-07-09T14:02:50.861Z,736.88
2018-07-09T14:03:50.789Z,753.75
2018-07-09T14:04:50.736Z,748.13
2018-07-09T14:05:50.646Z,765.00
2018-07-09T14:06:50.581Z,759.38
2018-07-09T14:07:50.533Z,731.25
2018-07-09T14:08:50.442Z,725.63
2018-07-09T14:09:50.365Z,753.75
2018-07-09T14:10:50.322Z,748.13
2018-07-09T14:11:50.211Z,720.00
2018-07-09T14:12:50.150Z,725.63
2018-07-09T14:13:50.064Z,725.63
2018-07-09T14:14:50.002Z,742.50
2018-07-09T14:15:49.906Z,736.88
2018-07-09T14:18:31.741Z,793.13
2018-07-09T14:19:31.665Z,810.00
2018-07-09T14:20:31.633Z,787.50
2018-07-09T14:21:31.551Z,776.25
2018-07-09T14:22:31.438Z,759.38
2018-07-09T14:23:31.391Z,731.25
2018-07-09T14:24:31.311Z,697.50
2018-07-09T14:27:13.242Z,579.38
2018-07-09T14:28:13.175Z,534.38
2018-07-09T14:29:13.099Z,506.25
2018-07-09T14:30:13.059Z,506.25
2018-07-09T14:31:12.956Z,523.13
2018-07-09T14:32:12.889Z,540.00
2018-07-09T14:33:12.797Z,556.88
2018-07-09T14:34:12.736Z,556.88
2018-07-09T14:35:12.653Z,551.25
2018-07-09T14:36:13.621Z,528.75
2018-07-09T14:37:12.538Z,478.13
2018-07-09T14:38:12.436Z,433.13
2018-07-09T14:39:12.361Z,393.75
2018-07-09T14:40:12.311Z,365.63
2018-07-09T14:41:12.270Z,343.13
2018-07-09T14:42:12.147Z,343.13
2018-07-09T14:43:12.072Z,315.00
2018-07-09T14:44:12.008Z,298.13
2018-07-09T14:45:11.996Z,286.88
2018-07-09T14:46:11.902Z,281.25
2018-07-09T14:47:11.788Z,286.88
2018-07-09T14:48:11.729Z,315.00
2018-07-09T14:49:11.634Z,348.75
2018-07-09T14:50:11.561Z,382.50
2018-07-09T14:51:11.488Z,399.38
2018-07-09T14:52:11.437Z,416.25
2018-07-09T14:53:11.338Z,433.13
2018-07-09T14:54:11.273Z,427.50
2018-07-09T14:55:11.183Z,416.25
2018-07-09T14:56:11.141Z,388.13
2018-07-09T14:57:11.135Z,365.63
2018-07-09T14:58:11.002Z,331.88
2018-07-09T14:59:10.884Z,298.13
2018-07-09T15:00:10.820Z,270.00
2018-07-09T15:01:10.786Z,247.50
2018-07-09T15:02:10.687Z,236.25
2018-07-09T15:03:10.610Z,236.25
2018-07-09T15:05:52.747Z,236.25
2018-07-09T15:06:52.720Z,225.00
2018-07-09T15:07:52.604Z,219.38
2018-07-09T15:08:52.531Z,213.75
2018-07-09T15:09:52.461Z,196.88
2018-07-09T15:10:52.384Z,185.63
2018-07-09T15:11:52.339Z,185.63
2018-07-09T15:12:52.226Z,191.25
2018-07-09T15:13:52.202Z,213.75
2018-07-09T15:14:52.085Z,247.50
2018-07-09T15:15:52.082Z,275.63
2018-07-09T15:16:51.928Z,303.75
2018-07-09T15:17:51.888Z,348.75